Time;durP1;ratioP1;P1;durP2;ratioP2;P2;SDS_P1;SDS_P2;PMS_P1;PMS_P2;Temp;Humidity;BMP_temperature;BMP_pressure;BME280_temperature;BME280_humidity;BME280_pressure;Samples;Min_cycle;Max_cycle;Signal;HPM_P1;HPM_P2
2023/06/12 00:01:09;;;;;;;4.70;4.30;;;18.50;54.60;;;;;;5005622;28;20034;-63
2023/06/12 00:03:35;;;;;;;4.95;4.55;;;18.50;54.70;;;;;;5005062;28;20504;-64
2023/06/12 00:06:01;;;;;;;4.28;3.97;;;18.50;54.90;;;;;;4999915;28;20314;-64
2023/06/12 00:08:32;;;;;;;6.30;4.53;;;18.40;54.90;;;;;;5001787;28;20465;-63
2023/06/12 00:10:58;;;;;;;5.10;4.20;;;18.40;56.10;;;;;;5000151;28;20506;-63
2023/06/12 00:13:24;;;;;;;4.70;4.25;;;18.30;55.30;;;;;;4999696;28;20038;-64
2023/06/12 00:15:50;;;;;;;4.28;3.97;;;18.20;55.40;;;;;;5001563;28;20082;-63
2023/06/12 00:18:16;;;;;;;4.95;4.45;;;18.10;55.40;;;;;;5001017;28;20058;-63
2023/06/12 00:20:41;;;;;;;4.82;4.43;;;18.10;55.60;;;;;;4979211;28;20033;-63
2023/06/12 00:23:10;;;;;;;5.78;5.18;;;18.00;55.90;;;;;;5000569;28;20095;-63
2023/06/12 00:25:36;;;;;;;5.40;5.00;;;17.90;56.00;;;;;;4999857;28;20100;-63
2023/06/12 00:28:02;;;;;;;5.20;4.80;;;17.90;56.10;;;;;;4998416;28;20033;-64
2023/06/12 00:30:28;;;;;;;5.53;4.97;;;17.80;56.20;;;;;;4999944;28;20410;-63
2023/06/12 00:32:54;;;;;;;5.38;4.88;;;17.70;56.30;;;;;;5004880;28;20037;-64
2023/06/12 00:35:19;;;;;;;5.10;4.57;;;17.60;56.50;;;;;;5002881;28;20042;-63
2023/06/12 00:37:49;;;;;;;5.00;4.50;;;17.50;56.70;;;;;;5003680;28;20035;-63
2023/06/12 00:40:15;;;;;;;4.97;4.57;;;17.50;57.10;;;;;;4986055;28;20124;-63
2023/06/12 00:42:47;;;;;;;6.55;5.28;;;17.40;56.90;;;;;;5002770;28;20048;-63
2023/06/12 00:45:13;;;;;;;5.57;5.05;;;17.40;57.30;;;;;;5003227;28;20132;-63
2023/06/12 00:47:40;;;;;;;5.30;4.90;;;17.40;57.30;;;;;;5006071;28;20061;-63
2023/06/12 00:50:09;;;;;;;6.20;5.03;;;17.30;57.20;;;;;;5002759;28;20225;-63
2023/06/12 00:52:35;;;;;;;5.28;4.78;;;17.30;57.50;;;;;;5002679;28;20046;-63
2023/06/12 00:55:02;;;;;;;5.45;4.95;;;17.30;57.50;;;;;;5002908;28;20041;-64
2023/06/12 00:57:27;;;;;;;5.47;4.97;;;17.30;57.60;;;;;;5003283;28;20038;-64
2023/06/12 00:59:56;;;;;;;5.25;4.78;;;17.30;57.80;;;;;;5002995;28;20053;-63
2023/06/12 01:02:22;;;;;;;5.32;4.82;;;17.30;58.00;;;;;;5001576;28;20048;-63
2023/06/12 01:04:49;;;;;;;5.30;4.80;;;17.30;57.90;;;;;;5001990;28;20045;-64
2023/06/12 01:07:29;;;;;;;5.10;4.60;;;17.30;57.80;;;;;;5002395;28;20401;-62
2023/06/12 01:10:06;;;;;;;5.10;4.68;;;17.30;58.30;;;;;;5005495;28;20636;-64
2023/06/12 01:12:34;;;;;;;5.05;4.60;;;17.30;57.90;;;;;;5001057;28;20493;-63
2023/06/12 01:14:59;;;;;;;4.97;4.57;;;17.30;58.00;;;;;;5002316;28;20025;-62
2023/06/12 01:17:27;;;;;;;5.20;4.55;;;17.30;58.00;;;;;;5003987;28;20517;-63
2023/06/12 01:19:56;;;;;;;5.00;4.60;;;17.40;58.30;;;;;;5003184;28;20034;-63
2023/06/12 01:22:24;;;;;;;6.20;5.10;;;17.30;58.30;;;;;;5001706;28;20417;-64
2023/06/12 01:25:17;;;;;;;5.32;4.65;;;17.20;58.60;;;;;;5000586;28;20046;-64
2023/06/12 01:28:22;;;;;;;5.53;4.68;;;17.20;59.10;;;;;;5003180;28;20034;-63
2023/06/12 01:30:54;;;;;;;5.55;5.05;;;17.10;59.30;;;;;;4971519;28;20047;-64
2023/06/12 01:33:30;;;;;;;5.07;4.57;;;17.00;58.50;;;;;;5004322;28;20570;-63
2023/06/12 01:35:58;;;;;;;5.20;4.75;;;17.00;58.90;;;;;;5000833;28;20038;-63
2023/06/12 01:38:27;;;;;;;5.35;4.85;;;17.00;59.20;;;;;;5002224;28;20038;-63
2023/06/12 01:40:54;;;;;;;4.70;4.30;;;17.00;59.10;;;;;;5001842;28;20524;-62
2023/06/12 01:43:25;;;;;;;7.53;4.60;;;17.00;59.00;;;;;;5000780;28;20082;-63
2023/06/12 01:45:50;;;;;;;5.18;4.68;;;17.00;59.30;;;;;;5002336;28;20037;-64
2023/06/12 01:48:16;;;;;;;4.65;4.25;;;17.10;59.20;;;;;;5004575;28;20030;-63
2023/06/12 01:50:42;;;;;;;4.50;4.10;;;17.10;59.20;;;;;;5001036;28;20129;-63
2023/06/12 01:53:10;;;;;;;5.28;4.53;;;17.10;59.30;;;;;;5002609;28;20037;-63
2023/06/12 01:55:36;;;;;;;5.72;5.18;;;17.20;59.40;;;;;;5001779;28;20038;-63
2023/06/12 01:58:02;;;;;;;5.32;4.82;;;17.20;59.40;;;;;;5001434;28;20480;-64
2023/06/12 02:00:28;;;;;;;6.53;5.25;;;17.20;59.50;;;;;;5000230;28;20037;-63
2023/06/12 02:02:56;;;;;;;5.20;4.70;;;17.10;59.40;;;;;;5001351;28;20041;-63
2023/06/12 02:05:22;;;;;;;5.30;4.72;;;17.00;60.30;;;;;;5002493;28;20530;-63
2023/06/12 02:07:48;;;;;;;5.57;5.00;;;17.00;59.70;;;;;;5001095;28;20100;-63
2023/06/12 02:10:14;;;;;;;8.50;5.25;;;16.90;59.90;;;;;;5003597;28;20505;-62
2023/06/12 02:12:39;;;;;;;5.40;4.90;;;16.90;60.50;;;;;;5000453;28;20069;-63
2023/06/12 02:15:06;;;;;;;6.28;4.97;;;16.80;60.60;;;;;;5002206;28;20038;-64
2023/06/12 02:17:32;;;;;;;6.22;4.88;;;16.80;60.80;;;;;;4984932;28;20408;-63
2023/06/12 02:20:00;;;;;;;5.45;4.95;;;16.80;60.80;;;;;;5003226;28;20050;-63
2023/06/12 02:22:25;;;;;;;5.03;4.60;;;16.80;61.00;;;;;;5002294;28;20537;-62
2023/06/12 02:24:51;;;;;;;105.43;8.65;;;16.80;60.80;;;;;;5000452;28;20053;-63
2023/06/12 02:27:17;;;;;;;5.43;4.93;;;16.80;60.90;;;;;;5001971;28;20459;-62
2023/06/12 02:29:42;;;;;;;5.72;5.22;;;16.80;60.80;;;;;;5000934;28;20546;-63
2023/06/12 02:32:08;;;;;;;8.35;5.78;;;16.80;60.80;;;;;;5000836;28;20041;-63
2023/06/12 02:34:33;;;;;;;6.30;5.70;;;16.80;60.90;;;;;;5001822;28;20620;-64
2023/06/12 02:36:59;;;;;;;7.45;5.72;;;16.70;61.00;;;;;;5000847;28;20041;-63
2023/06/12 02:39:25;;;;;;;6.10;5.50;;;16.70;61.00;;;;;;4999280;28;20037;-63
2023/06/12 02:41:50;;;;;;;6.15;5.65;;;16.60;61.00;;;;;;5001508;28;20034;-63
2023/06/12 02:44:16;;;;;;;6.10;5.60;;;16.50;61.00;;;;;;5003031;28;20037;-63
2023/06/12 02:46:55;;;;;;;6.05;5.55;;;16.50;61.10;;;;;;5002154;28;20030;-64
2023/06/12 02:49:21;;;;;;;7.90;5.68;;;16.50;62.20;;;;;;5000956;28;20239;-63
2023/06/12 02:51:47;;;;;;;6.10;5.60;;;16.50;61.30;;;;;;5002873;28;20196;-63
2023/06/12 02:54:15;;;;;;;10.88;5.88;;;16.40;61.50;;;;;;5004031;28;20128;-64
2023/06/12 02:56:46;;;;;;;6.45;5.57;;;16.30;61.60;;;;;;5002405;28;20096;-63
2023/06/12 02:59:17;;;;;;;6.55;5.95;;;16.30;61.90;;;;;;5016447;28;20064;-63
2023/06/12 03:01:44;;;;;;;6.15;5.55;;;16.20;62.40;;;;;;5014001;28;20038;-63
2023/06/12 03:04:11;;;;;;;6.30;5.70;;;16.20;62.00;;;;;;5004740;28;20036;-64
2023/06/12 03:06:37;;;;;;;6.55;5.93;;;16.10;62.20;;;;;;5005719;28;20041;-63
2023/06/12 03:09:02;;;;;;;6.47;5.88;;;16.10;62.20;;;;;;5003366;28;20026;-63
2023/06/12 03:11:28;;;;;;;6.40;5.80;;;16.10;62.20;;;;;;5002688;28;20037;-64
2023/06/12 03:13:54;;;;;;;6.40;5.80;;;16.10;62.40;;;;;;5004173;28;20715;-63
2023/06/12 03:16:20;;;;;;;7.00;6.30;;;16.00;62.50;;;;;;5005703;28;20057;-63
2023/06/12 03:18:46;;;;;;;6.15;5.63;;;16.10;62.70;;;;;;5002383;28;20072;-63
2023/06/12 03:21:11;;;;;;;6.60;5.88;;;16.00;62.70;;;;;;5001047;28;20037;-62
2023/06/12 03:23:37;;;;;;;5.90;5.40;;;16.00;62.80;;;;;;5004508;28;20046;-63
2023/06/12 03:26:04;;;;;;;6.43;5.80;;;15.90;62.70;;;;;;5004310;28;20041;-63
2023/06/12 03:28:29;;;;;;;6.90;6.20;;;16.00;62.90;;;;;;4998993;28;20060;-64
2023/06/12 03:30:55;;;;;;;7.03;5.72;;;16.00;63.10;;;;;;4999558;28;20517;-63
2023/06/12 03:33:21;;;;;;;6.35;5.75;;;16.00;63.40;;;;;;5001229;28;20041;-63
2023/06/12 03:35:46;;;;;;;6.38;5.78;;;16.00;63.80;;;;;;5000322;28;20192;-63
2023/06/12 03:38:12;;;;;;;6.20;5.60;;;16.00;64.00;;;;;;5000814;28;20046;-63
2023/06/12 03:40:37;;;;;;;6.22;5.70;;;16.00;64.00;;;;;;4999512;28;20152;-63
2023/06/12 03:43:03;;;;;;;5.72;5.22;;;16.10;64.00;;;;;;5004041;28;20565;-63
2023/06/12 03:45:28;;;;;;;6.95;5.15;;;16.10;64.00;;;;;;4995431;28;20502;-63
2023/06/12 03:47:54;;;;;;;5.80;5.30;;;16.10;63.90;;;;;;5001414;28;20041;-61
2023/06/12 03:50:22;;;;;;;6.10;5.55;;;16.10;64.00;;;;;;4999172;28;20026;-63
2023/06/12 03:52:47;;;;;;;5.60;5.10;;;16.10;64.10;;;;;;5001877;28;21521;-63
2023/06/12 03:55:13;;;;;;;6.32;5.75;;;16.20;64.30;;;;;;5000266;28;20440;-63
2023/06/12 03:57:38;;;;;;;6.45;5.85;;;16.20;64.30;;;;;;5000076;28;20473;-63
2023/06/12 04:00:08;;;;;;;6.03;5.43;;;16.20;64.50;;;;;;4998892;28;20038;-63
2023/06/12 04:02:34;;;;;;;6.38;5.78;;;16.30;64.70;;;;;;4999623;28;20103;-63
2023/06/12 04:05:00;;;;;;;6.15;5.55;;;16.30;64.50;;;;;;5003196;28;20044;-63
2023/06/12 04:07:26;;;;;;;6.47;5.88;;;16.30;64.80;;;;;;5001504;28;20057;-63
2023/06/12 04:09:51;;;;;;;6.47;5.88;;;16.40;64.80;;;;;;5000295;28;20064;-63
2023/06/12 04:12:17;;;;;;;6.28;5.68;;;16.40;64.80;;;;;;4999827;28;20402;-63
2023/06/12 04:14:43;;;;;;;6.00;5.47;;;16.40;64.90;;;;;;5001903;28;20375;-63
2023/06/12 04:17:08;;;;;;;5.78;5.20;;;16.50;64.80;;;;;;4998891;28;20508;-63
2023/06/12 04:19:36;;;;;;;5.75;5.15;;;16.50;64.80;;;;;;4999370;28;20402;-63
2023/06/12 04:22:02;;;;;;;6.25;5.63;;;16.50;64.90;;;;;;4997451;28;20555;-63
2023/06/12 04:24:30;;;;;;;6.30;5.78;;;16.50;65.00;;;;;;4993677;28;20060;-62
2023/06/12 04:27:00;;;;;;;8.35;5.50;;;16.60;65.20;;;;;;4999926;28;20046;-63
2023/06/12 04:29:27;;;;;;;5.93;5.43;;;16.60;65.50;;;;;;5004093;28;20049;-63
2023/06/12 04:31:54;;;;;;;6.72;6.07;;;16.60;65.10;;;;;;5003557;28;20085;-63
2023/06/12 04:34:20;;;;;;;8.00;6.45;;;16.70;65.70;;;;;;5003931;28;20034;-63
2023/06/12 04:36:46;;;;;;;7.95;6.18;;;16.70;65.60;;;;;;5002338;28;20040;-63
2023/06/12 04:39:13;;;;;;;5.90;5.40;;;16.70;65.60;;;;;;5003905;28;20053;-63
2023/06/12 04:41:40;;;;;;;6.53;5.93;;;16.70;65.70;;;;;;4981901;28;20038;-63
2023/06/12 04:44:06;;;;;;;6.30;5.70;;;16.70;65.90;;;;;;5003887;28;20045;-62
2023/06/12 04:46:32;;;;;;;7.13;5.97;;;16.70;65.90;;;;;;5003748;28;20045;-63
2023/06/12 04:48:59;;;;;;;9.45;5.38;;;16.80;66.10;;;;;;5003556;28;20054;-63
2023/06/12 04:51:24;;;;;;;8.30;6.07;;;16.80;66.20;;;;;;5004830;28;20041;-62
2023/06/12 04:53:53;;;;;;;7.53;6.82;;;16.80;66.20;;;;;;5004252;28;20030;-63
2023/06/12 04:56:21;;;;;;;7.47;6.50;;;16.90;66.50;;;;;;5004547;28;20175;-62
2023/06/12 04:58:47;;;;;;;7.85;6.85;;;16.80;66.60;;;;;;5003231;28;20087;-63
2023/06/12 05:01:14;;;;;;;6.68;6.05;;;16.90;66.80;;;;;;5004566;28;20053;-63
2023/06/12 05:03:40;;;;;;;6.95;6.25;;;16.90;66.80;;;;;;5002022;28;20037;-63
2023/06/12 05:06:07;;;;;;;7.65;6.80;;;17.00;66.80;;;;;;5003498;28;20394;-63
2023/06/12 05:08:33;;;;;;;6.55;5.88;;;17.00;67.10;;;;;;4985697;28;20234;-63
2023/06/12 05:10:59;;;;;;;6.90;6.20;;;17.10;67.30;;;;;;5004744;28;20026;-63
2023/06/12 05:13:25;;;;;;;11.05;6.97;;;17.10;67.40;;;;;;5002842;28;20034;-62
2023/06/12 05:15:50;;;;;;;7.38;6.53;;;17.10;67.80;;;;;;5003083;28;20037;-62
2023/06/12 05:18:16;;;;;;;8.70;6.60;;;17.20;67.40;;;;;;5005324;28;20042;-63
2023/06/12 05:20:42;;;;;;;11.35;6.68;;;17.20;67.50;;;;;;5004424;28;20891;-63
2023/06/12 05:23:07;;;;;;;9.13;7.30;;;17.30;67.60;;;;;;5007460;28;20034;-63
2023/06/12 05:25:33;;;;;;;7.30;6.40;;;17.30;67.80;;;;;;5006332;28;20038;-62
2023/06/12 05:27:58;;;;;;;10.75;7.18;;;17.40;67.80;;;;;;5007752;28;20211;-63
2023/06/12 05:30:24;;;;;;;7.80;7.00;;;17.50;68.10;;;;;;5006443;28;20037;-63
2023/06/12 05:32:50;;;;;;;7.90;6.30;;;17.50;68.10;;;;;;5006341;28;20497;-63
2023/06/12 05:35:15;;;;;;;7.68;6.90;;;17.60;67.90;;;;;;5007076;28;20402;-63
2023/06/12 05:37:41;;;;;;;10.00;6.15;;;17.60;68.10;;;;;;5007197;28;20409;-63
2023/06/12 05:40:09;;;;;;;6.72;6.03;;;17.70;68.00;;;;;;5006603;28;20037;-64
2023/06/12 05:42:35;;;;;;;9.23;6.43;;;17.80;67.90;;;;;;5005235;28;20033;-63
2023/06/12 05:45:01;;;;;;;6.90;6.30;;;17.90;68.00;;;;;;5006664;28;20034;-63
2023/06/12 05:47:27;;;;;;;6.93;6.22;;;17.90;67.90;;;;;;5006267;28;20038;-62
2023/06/12 05:49:53;;;;;;;8.02;6.07;;;18.00;67.80;;;;;;5006616;28;20026;-63
2023/06/12 05:52:18;;;;;;;6.88;6.18;;;18.20;67.60;;;;;;5006815;28;20041;-63
2023/06/12 05:54:44;;;;;;;7.93;5.63;;;18.20;67.40;;;;;;5005638;28;20033;-63
2023/06/12 05:57:11;;;;;;;6.38;5.70;;;18.30;67.10;;;;;;5005985;28;20069;-63
2023/06/12 05:59:37;;;;;;;7.45;5.95;;;18.50;67.00;;;;;;5006101;28;20033;-63
2023/06/12 06:02:02;;;;;;;6.57;5.97;;;18.50;66.90;;;;;;5006128;28;20034;-62
2023/06/12 06:04:28;;;;;;;7.82;6.30;;;18.70;66.70;;;;;;5006207;28;20041;-63
2023/06/12 06:06:54;;;;;;;6.22;5.72;;;18.80;66.50;;;;;;5005854;28;20041;-63
2023/06/12 06:09:20;;;;;;;6.32;5.72;;;18.90;66.20;;;;;;5006681;28;20037;-61
2023/06/12 06:11:46;;;;;;;6.40;5.70;;;19.00;66.20;;;;;;5006810;28;20038;-63
2023/06/12 06:14:12;;;;;;;6.13;5.55;;;19.10;66.20;;;;;;5006604;28;20544;-63
2023/06/12 06:16:38;;;;;;;6.22;5.63;;;19.20;66.90;;;;;;5005249;28;20042;-63
2023/06/12 06:19:03;;;;;;;5.72;5.20;;;19.30;65.80;;;;;;5005658;28;20091;-63
2023/06/12 06:21:33;;;;;;;5.95;5.45;;;19.40;65.50;;;;;;5006090;28;20489;-62
2023/06/12 06:23:58;;;;;;;5.95;5.35;;;19.50;65.30;;;;;;5005996;28;20034;-63
2023/06/12 06:26:24;;;;;;;5.43;4.93;;;19.60;64.80;;;;;;5005484;28;20090;-63
2023/06/12 06:28:50;;;;;;;5.45;4.95;;;19.70;65.20;;;;;;5005407;28;20030;-63
2023/06/12 06:31:16;;;;;;;6.63;5.40;;;19.80;64.70;;;;;;5005929;28;20030;-62
2023/06/12 06:33:41;;;;;;;5.78;5.18;;;19.90;64.30;;;;;;5004791;28;20026;-62
2023/06/12 06:36:07;;;;;;;5.50;5.00;;;20.00;64.30;;;;;;5004027;28;20947;-62
2023/06/12 06:38:33;;;;;;;8.05;4.95;;;20.10;64.10;;;;;;5004877;28;20088;-63
2023/06/12 06:40:59;;;;;;;9.30;5.13;;;20.20;63.70;;;;;;5003169;28;20034;-63
2023/06/12 06:43:25;;;;;;;5.68;5.05;;;20.20;63.30;;;;;;5006156;28;20121;-63
2023/06/12 06:45:51;;;;;;;6.88;4.85;;;20.30;63.30;;;;;;5006163;28;20327;-63
2023/06/12 06:48:16;;;;;;;5.18;4.70;;;20.40;63.10;;;;;;5004442;28;20072;-63
2023/06/12 06:50:42;;;;;;;5.07;4.57;;;20.50;63.00;;;;;;5004487;28;20124;-63
2023/06/12 06:53:08;;;;;;;5.03;4.63;;;20.50;62.40;;;;;;5004304;28;20041;-63
2023/06/12 06:55:33;;;;;;;5.28;4.75;;;20.60;62.10;;;;;;5003967;28;20212;-63
2023/06/12 06:58:00;;;;;;;4.68;4.32;;;20.70;61.50;;;;;;5005586;28;20034;-63
2023/06/12 07:00:26;;;;;;;5.35;4.85;;;20.80;61.30;;;;;;5004974;28;20046;-63
2023/06/12 07:02:52;;;;;;;5.20;4.70;;;20.90;61.20;;;;;;5004480;28;20045;-63
2023/06/12 07:05:18;;;;;;;5.32;4.80;;;21.00;60.50;;;;;;5005933;28;20083;-63
2023/06/12 07:07:47;;;;;;;5.70;4.63;;;21.10;60.40;;;;;;5005465;28;20077;-63
2023/06/12 07:10:12;;;;;;;5.15;4.70;;;21.10;60.10;;;;;;5006051;28;20034;-63
2023/06/12 07:12:38;;;;;;;6.75;4.57;;;21.20;60.70;;;;;;5003143;28;20080;-63
2023/06/12 07:15:04;;;;;;;5.30;4.80;;;21.30;59.80;;;;;;5005314;28;20044;-63
2023/06/12 07:17:30;;;;;;;5.45;4.25;;;21.40;59.60;;;;;;5004378;28;20132;-63
2023/06/12 07:19:55;;;;;;;7.13;4.55;;;21.40;59.40;;;;;;5003364;28;20117;-64
2023/06/12 07:22:21;;;;;;;5.30;4.50;;;21.50;59.10;;;;;;5006033;28;20541;-63
2023/06/12 07:24:47;;;;;;;4.60;4.25;;;21.60;58.80;;;;;;5005792;28;20046;-63
2023/06/12 07:27:12;;;;;;;5.60;4.60;;;21.70;58.80;;;;;;5004582;28;20039;-63
2023/06/12 07:29:38;;;;;;;6.00;4.55;;;21.70;58.50;;;;;;5004959;28;20038;-62
2023/06/12 07:32:04;;;;;;;6.70;4.13;;;21.80;58.30;;;;;;5005631;28;20037;-63
2023/06/12 07:34:30;;;;;;;6.40;4.57;;;21.90;58.10;;;;;;5003437;28;20113;-63
2023/06/12 07:36:56;;;;;;;5.07;4.35;;;22.00;58.00;;;;;;5005214;28;20113;-61
2023/06/12 07:39:22;;;;;;;5.35;4.40;;;22.00;57.90;;;;;;5003482;28;20537;-63
2023/06/12 07:41:47;;;;;;;5.85;4.50;;;22.10;57.20;;;;;;5003973;28;20616;-63
2023/06/12 07:44:13;;;;;;;4.90;4.43;;;22.20;57.00;;;;;;5004542;28;20076;-63
2023/06/12 07:46:42;;;;;;;6.93;4.15;;;22.30;56.60;;;;;;5003982;28;20034;-63
2023/06/12 07:49:07;;;;;;;6.70;4.00;;;22.40;56.40;;;;;;5004904;28;20029;-63
2023/06/12 07:51:33;;;;;;;5.03;4.57;;;22.40;56.80;;;;;;5004607;28;20092;-63
2023/06/12 07:53:58;;;;;;;5.93;4.47;;;22.50;56.10;;;;;;5004367;28;20465;-63
2023/06/12 07:56:24;;;;;;;4.38;4.05;;;22.60;55.90;;;;;;5004876;28;20084;-63
2023/06/12 07:58:51;;;;;;;6.95;4.28;;;22.70;55.70;;;;;;5002745;28;20109;-63
2023/06/12 08:01:17;;;;;;;4.25;3.85;;;22.80;55.50;;;;;;5001648;28;20040;-63
2023/06/12 08:03:43;;;;;;;4.30;3.90;;;22.80;55.20;;;;;;5002653;28;20038;-63
2023/06/12 08:06:13;;;;;;;4.95;3.97;;;22.90;55.40;;;;;;5005915;28;20053;-63
2023/06/12 08:08:46;;;;;;;4.78;4.07;;;23.00;55.00;;;;;;5003737;28;20034;-63
2023/06/12 08:11:12;;;;;;;4.28;3.70;;;23.10;54.70;;;;;;5004318;28;20054;-63
2023/06/12 08:13:38;;;;;;;6.88;3.78;;;23.20;54.30;;;;;;5004733;28;20041;-64
2023/06/12 08:16:05;;;;;;;4.30;3.85;;;23.30;54.10;;;;;;5005675;28;20045;-63
2023/06/12 08:18:30;;;;;;;6.20;3.58;;;23.40;53.70;;;;;;5004477;28;20185;-63
2023/06/12 08:20:59;;;;;;;3.85;3.55;;;23.50;53.40;;;;;;5005963;28;20109;-63
2023/06/12 08:23:25;;;;;;;3.97;3.67;;;23.60;52.90;;;;;;5005551;28;20383;-64
2023/06/12 08:25:50;;;;;;;4.05;3.55;;;23.70;51.60;;;;;;5006270;28;20045;-63
2023/06/12 08:28:16;;;;;;;5.18;3.53;;;23.80;52.50;;;;;;5005009;28;20064;-63
2023/06/12 08:30:42;;;;;;;3.92;3.50;;;23.80;51.40;;;;;;5005295;28;20489;-63
2023/06/12 08:33:08;;;;;;;3.25;3.00;;;24.00;50.70;;;;;;5006036;28;20057;-63
2023/06/12 08:35:35;;;;;;;5.53;3.30;;;24.00;50.60;;;;;;5005404;28;20608;-63
2023/06/12 08:38:01;;;;;;;3.38;3.08;;;24.10;49.80;;;;;;5004115;28;20108;-63
2023/06/12 08:40:26;;;;;;;3.53;3.10;;;24.20;49.50;;;;;;5005407;28;20684;-63
2023/06/12 08:42:52;;;;;;;5.05;3.00;;;24.30;49.50;;;;;;5005704;28;20034;-63
2023/06/12 08:45:25;;;;;;;2.95;2.75;;;24.40;49.30;;;;;;5005718;28;20053;-63
2023/06/12 08:47:52;;;;;;;6.93;3.22;;;24.50;47.60;;;;;;5004639;28;20275;-63
2023/06/12 08:50:19;;;;;;;5.45;3.03;;;24.60;47.30;;;;;;5004158;28;20026;-63
2023/06/12 08:52:49;;;;;;;3.25;2.97;;;24.70;47.70;;;;;;5006859;28;20184;-62
2023/06/12 08:55:15;;;;;;;3.33;2.88;;;24.70;46.90;;;;;;5008585;28;20038;-63
2023/06/12 08:57:45;;;;;;;3.85;3.00;;;24.80;46.40;;;;;;5007986;28;20096;-62
2023/06/12 09:00:15;;;;;;;5.88;2.85;;;24.80;45.70;;;;;;5009189;28;20033;-62
2023/06/12 09:02:46;;;;;;;3.20;3.00;;;24.90;46.20;;;;;;5007144;28;20034;-63
2023/06/12 09:05:19;;;;;;;5.95;3.20;;;25.00;45.50;;;;;;5008549;28;20034;-62
2023/06/12 09:07:47;;;;;;;5.03;2.90;;;25.00;45.00;;;;;;5009386;28;20127;-62
2023/06/12 09:10:16;;;;;;;5.32;2.90;;;25.10;45.00;;;;;;5007837;28;20038;-62
2023/06/12 09:12:44;;;;;;;3.28;3.00;;;25.20;45.20;;;;;;5008108;28;20107;-63
2023/06/12 09:15:16;;;;;;;3.42;2.90;;;25.30;45.00;;;;;;5009033;28;20069;-63
2023/06/12 09:17:42;;;;;;;3.03;2.83;;;25.40;44.60;;;;;;5006557;28;20046;-63
2023/06/12 09:20:15;;;;;;;5.20;3.08;;;25.50;45.20;;;;;;5006705;28;20397;-63
2023/06/12 09:22:41;;;;;;;3.63;3.25;;;25.50;44.10;;;;;;5007999;28;20091;-63
2023/06/12 09:25:08;;;;;;;4.40;3.05;;;25.60;43.50;;;;;;5008778;28;20049;-63
2023/06/12 09:27:43;;;;;;;3.63;3.33;;;25.60;44.40;;;;;;5007693;28;20061;-63
2023/06/12 09:30:10;;;;;;;3.72;3.38;;;25.70;44.10;;;;;;5007929;28;20501;-63
2023/06/12 09:32:35;;;;;;;7.57;3.30;;;25.80;44.30;;;;;;5006992;28;20034;-63
2023/06/12 09:35:02;;;;;;;3.50;3.20;;;25.80;43.00;;;;;;5009053;28;20046;-62
2023/06/12 09:37:28;;;;;;;3.30;3.03;;;25.90;43.40;;;;;;5008335;28;20049;-63
2023/06/12 09:40:10;;;;;;;2.90;2.70;;;26.00;43.50;;;;;;5007369;28;20121;-63
2023/06/12 09:42:37;;;;;;;4.85;2.72;;;26.00;42.90;;;;;;5006889;28;20034;-63
2023/06/12 09:45:11;;;;;;;4.60;3.10;;;26.10;43.40;;;;;;5007993;28;20036;-63
2023/06/12 09:47:48;;;;;;;5.67;3.23;;;26.20;42.90;;;;;;5007096;28;20061;-63
2023/06/12 09:50:15;;;;;;;3.50;3.20;;;26.30;42.70;;;;;;5006980;28;20376;-63
2023/06/12 09:52:42;;;;;;;3.85;3.20;;;26.30;43.10;;;;;;5007259;28;20613;-63
2023/06/12 09:55:11;;;;;;;3.95;3.03;;;26.30;43.00;;;;;;5007882;28;20038;-63
2023/06/12 09:57:38;;;;;;;3.08;2.88;;;26.30;42.50;;;;;;5007698;28;20111;-63
2023/06/12 10:00:07;;;;;;;7.90;3.20;;;26.40;42.20;;;;;;5008786;28;20140;-63
2023/06/12 10:02:33;;;;;;;3.53;2.83;;;26.40;42.10;;;;;;5006223;28;20066;-64
2023/06/12 10:05:17;;;;;;;3.45;3.17;;;26.50;42.00;;;;;;5008547;28;20038;-63
2023/06/12 10:07:52;;;;;;;3.13;2.92;;;26.50;41.60;;;;;;5007280;28;20109;-63
2023/06/12 10:10:18;;;;;;;;;;;26.50;42.10;;;;;;5008552;28;20038;-63
2023/06/12 10:12:45;;;;;;;3.08;2.88;;;26.60;43.20;;;;;;5007046;28;20384;-63
2023/06/12 10:15:12;;;;;;;3.53;3.08;;;26.60;42.30;;;;;;5008224;28;20041;-63
2023/06/12 10:17:40;;;;;;;3.55;3.08;;;26.70;42.10;;;;;;5006962;28;20042;-64
2023/06/12 10:20:09;;;;;;;7.95;3.03;;;26.70;42.20;;;;;;4994510;28;20030;-63
2023/06/12 10:22:34;;;;;;;4.60;3.08;;;26.80;41.60;;;;;;5007282;28;20056;-64
2023/06/12 10:25:01;;;;;;;3.40;3.20;;;26.90;41.70;;;;;;4996394;28;20494;-63
2023/06/12 10:27:27;;;;;;;3.10;2.90;;;26.90;41.80;;;;;;5006894;28;20131;-63
2023/06/12 10:29:57;;;;;;;3.30;3.00;;;26.90;40.90;;;;;;5007539;28;20437;-64
2023/06/12 10:32:24;;;;;;;5.22;2.67;;;27.00;40.70;;;;;;5007073;28;20033;-63
2023/06/12 10:34:54;;;;;;;5.63;3.05;;;27.00;40.40;;;;;;5006549;28;20034;-63
2023/06/12 10:37:27;;;;;;;5.65;2.90;;;27.10;40.00;;;;;;5004282;28;20077;-63
2023/06/12 10:40:05;;;;;;;3.22;2.92;;;27.10;40.00;;;;;;5006829;28;20850;-63
2023/06/12 10:42:48;;;;;;;2.78;2.58;;;27.10;39.70;;;;;;5006181;28;20113;-63
2023/06/12 10:45:16;;;;;;;4.47;2.50;;;27.20;40.00;;;;;;5006494;28;20580;-63
2023/06/12 10:47:42;;;;;;;2.75;2.50;;;27.30;40.10;;;;;;5006399;28;20034;-63
2023/06/12 10:50:08;;;;;;;3.00;2.80;;;27.30;39.80;;;;;;5007079;28;20040;-63
2023/06/12 10:52:34;;;;;;;3.15;2.75;;;27.40;39.60;;;;;;5004807;28;20501;-63
2023/06/12 10:55:15;;;;;;;4.10;2.58;;;27.40;39.70;;;;;;5006213;28;20647;-63
2023/06/12 10:57:47;;;;;;;2.97;2.78;;;27.40;39.50;;;;;;5006116;28;20058;-63
2023/06/12 11:00:16;;;;;;;4.20;2.50;;;27.50;39.50;;;;;;5007027;28;20026;-63
2023/06/12 11:02:43;;;;;;;3.03;2.83;;;27.50;39.60;;;;;;5006379;28;20030;-63
2023/06/12 11:05:09;;;;;;;6.07;2.60;;;27.50;39.80;;;;;;5006553;28;20477;-63
2023/06/12 11:07:35;;;;;;;3.10;2.85;;;27.60;39.20;;;;;;5007357;28;20033;-63
2023/06/12 11:10:11;;;;;;;2.67;2.42;;;27.60;39.20;;;;;;5007661;28;20038;-63
2023/06/12 11:12:45;;;;;;;3.92;2.50;;;27.60;38.90;;;;;;4989381;28;20390;-63
2023/06/12 11:15:11;;;;;;;2.80;2.60;;;27.60;38.90;;;;;;5006451;28;20065;-64
2023/06/12 11:17:36;;;;;;;3.92;2.53;;;27.70;39.30;;;;;;5005785;28;20470;-64
2023/06/12 11:20:05;;;;;;;3.15;2.83;;;27.60;38.90;;;;;;5007731;28;20038;-63
2023/06/12 11:22:31;;;;;;;3.42;3.10;;;27.70;39.00;;;;;;5007150;28;20557;-63
2023/06/12 11:25:00;;;;;;;2.67;2.45;;;27.70;39.00;;;;;;5007894;28;20045;-64
2023/06/12 11:27:26;;;;;;;2.30;2.20;;;27.70;38.40;;;;;;5007802;28;20029;-63
2023/06/12 11:29:52;;;;;;;8.07;2.90;;;27.80;38.00;;;;;;5004898;28;20536;-63
2023/06/12 11:32:20;;;;;;;3.00;2.70;;;27.80;38.10;;;;;;5005377;28;20034;-62
2023/06/12 11:34:45;;;;;;;2.65;2.45;;;27.80;38.20;;;;;;5005590;28;20044;-63
2023/06/12 11:37:16;;;;;;;4.43;2.45;;;27.80;37.90;;;;;;5006301;28;20030;-64
2023/06/12 11:39:42;;;;;;;2.85;2.38;;;27.80;37.90;;;;;;5006477;28;20037;-63
2023/06/12 11:42:09;;;;;;;2.88;2.60;;;27.80;38.10;;;;;;5007784;28;20048;-63
2023/06/12 11:44:35;;;;;;;3.10;2.40;;;27.90;38.30;;;;;;5006657;28;20038;-63
2023/06/12 11:47:01;;;;;;;2.80;2.38;;;27.90;38.30;;;;;;5007195;28;20034;-62
2023/06/12 11:49:31;;;;;;;4.80;2.30;;;27.90;37.30;;;;;;5007760;28;20056;-62
2023/06/12 11:51:57;;;;;;;5.00;2.70;;;27.90;37.30;;;;;;5007637;28;20065;-63
2023/06/12 11:54:24;;;;;;;3.72;2.47;;;28.00;37.40;;;;;;5006075;28;20129;-64
2023/06/12 11:56:50;;;;;;;2.92;2.60;;;28.00;37.30;;;;;;5004870;28;20647;-63
2023/06/12 11:59:16;;;;;;;4.03;2.35;;;28.00;37.10;;;;;;5006007;28;20506;-64
2023/06/12 12:01:45;;;;;;;2.65;2.22;;;28.00;37.00;;;;;;5004994;28;20034;-63
2023/06/12 12:04:11;;;;;;;2.75;2.40;;;28.00;36.90;;;;;;5005368;28;20425;-63
2023/06/12 12:06:50;;;;;;;4.13;2.30;;;27.90;37.00;;;;;;5004667;28;20034;-64
2023/06/12 12:09:27;;;;;;;2.72;2.50;;;28.00;36.90;;;;;;5005994;28;20502;-64
2023/06/12 12:11:53;;;;;;;2.65;2.45;;;28.00;36.60;;;;;;5004969;28;20076;-63
2023/06/12 12:14:18;;;;;;;2.83;2.40;;;28.00;36.70;;;;;;5005554;28;20572;-62
2023/06/12 12:16:44;;;;;;;4.20;2.28;;;28.00;36.90;;;;;;5003987;28;20049;-64
2023/06/12 12:19:17;;;;;;;2.45;2.25;;;28.00;36.70;;;;;;5004797;28;20413;-63
2023/06/12 12:21:45;;;;;;;4.38;2.58;;;28.00;35.90;;;;;;5005041;28;20653;-63
2023/06/12 12:24:12;;;;;;;3.20;2.60;;;28.00;37.20;;;;;;5005077;28;20038;-63
2023/06/12 12:26:41;;;;;;;3.95;2.90;;;28.00;36.70;;;;;;5004666;28;20041;-63
2023/06/12 12:29:08;;;;;;;3.53;2.47;;;28.00;36.50;;;;;;5009814;28;20041;-63
2023/06/12 12:31:36;;;;;;;3.95;2.83;;;28.00;36.80;;;;;;5009603;28;20049;-63
2023/06/12 12:34:02;;;;;;;4.45;2.83;;;28.00;36.80;;;;;;5008985;28;20932;-64
2023/06/12 12:36:27;;;;;;;2.63;2.42;;;28.10;36.70;;;;;;5007741;28;20038;-64
2023/06/12 12:38:53;;;;;;;10.13;2.65;;;28.10;36.50;;;;;;4991411;28;20512;-63
2023/06/12 12:41:19;;;;;;;9.27;2.38;;;28.10;36.70;;;;;;5009441;28;20501;-64
2023/06/12 12:43:44;;;;;;;28.27;3.83;;;28.10;37.00;;;;;;5009423;28;20521;-62
2023/06/12 12:46:10;;;;;;;3.55;2.60;;;28.10;36.60;;;;;;5008569;28;20056;-63
2023/06/12 12:48:37;;;;;;;4.38;2.78;;;28.20;36.90;;;;;;5007936;28;20030;-63